Time;durP1;ratioP1;P1;durP2;ratioP2;P2;SDS_P1;SDS_P2;PMS_P1;PMS_P2;Temp;Humidity;BMP_temperature;BMP_pressure;BME280_temperature;BME280_humidity;BME280_pressure;Samples;Min_cycle;Max_cycle;Signal;HPM_P1;HPM_P2
2023/04/06 04:02:47;;;;;;;7.05;6.55;;;;;;;2.20;56.73;94577.97;5000192;27;263286;-70
2023/04/06 04:05:17;;;;;;;7.43;6.93;;;;;;;2.23;56.50;94583.59;5056299;28;20194;-70
2023/04/06 04:07:44;;;;;;;5.93;5.63;;;;;;;2.21;56.34;94588.53;5051867;28;20197;-70
2023/04/06 04:10:14;;;;;;;6.50;6.00;;;;;;;2.19;56.56;94581.81;5051569;28;20280;-70
2023/04/06 04:12:44;;;;;;;6.25;5.85;;;;;;;2.15;56.83;94585.16;5052155;28;20292;-71
2023/04/06 04:15:13;;;;;;;6.50;6.07;;;;;;;2.15;56.76;94582.44;5052448;28;20198;-70
2023/04/06 04:17:40;;;;;;;6.70;6.30;;;;;;;2.19;56.57;94576.38;5052650;28;20197;-70
2023/04/06 04:20:14;;;;;;;6.75;6.25;;;;;;;2.22;56.79;94584.72;5051657;28;20198;-70
2023/04/06 04:22:44;;;;;;;6.10;5.70;;;;;;;2.20;56.56;94586.94;5051974;28;20693;-70
2023/04/06 04:25:11;;;;;;;7.18;6.68;;;;;;;2.23;57.08;94585.53;5051719;28;20190;-71
2023/04/06 04:27:38;;;;;;;6.57;6.18;;;;;;;2.25;56.90;94588.72;5051286;28;20201;-71
2023/04/06 04:30:09;;;;;;;7.50;6.93;;;;;;;2.28;57.25;94582.66;5051921;28;20591;-71
2023/04/06 04:32:36;;;;;;;7.13;6.63;;;;;;;2.29;56.60;94574.19;5002564;28;20220;-71
2023/04/06 04:35:03;;;;;;;7.32;6.82;;;;;;;2.28;57.16;94588.09;5051060;28;20198;-70
2023/04/06 04:37:34;;;;;;;7.03;6.53;;;;;;;2.31;57.13;94585.56;5051483;28;20285;-70
2023/04/06 04:40:02;;;;;;;7.47;6.80;;;;;;;2.32;56.61;94583.63;5050840;28;20198;-70
2023/04/06 04:42:29;;;;;;;7.18;6.68;;;;;;;2.36;56.88;94584.59;5052034;28;20219;-70
2023/04/06 04:44:57;;;;;;;7.00;6.50;;;;;;;2.23;56.76;94589.03;5050758;28;20209;-70
2023/04/06 04:47:27;;;;;;;7.20;6.70;;;;;;;2.22;56.79;94590.16;5050839;28;20202;-71
2023/04/06 04:49:54;;;;;;;7.18;6.47;;;;;;;2.23;56.45;94585.53;5050614;28;20246;-69
2023/04/06 04:52:21;;;;;;;7.65;7.05;;;;;;;2.18;56.60;94586.47;5050887;28;20198;-70
2023/04/06 04:54:53;;;;;;;7.47;6.90;;;;;;;2.22;56.70;94583.91;5050481;28;20255;-70
2023/04/06 04:57:20;;;;;;;7.65;7.15;;;;;;;2.29;57.33;94582.34;5050478;28;20204;-70
2023/04/06 04:59:50;;;;;;;7.55;6.97;;;;;;;2.34;56.54;94586.84;5050777;28;20186;-70
2023/04/06 05:02:18;;;;;;;8.52;7.82;;;;;;;2.28;56.93;94583.44;5050071;28;20248;-70
2023/04/06 05:04:46;;;;;;;7.75;7.22;;;;;;;2.27;56.66;94584.56;5051084;28;20602;-69
2023/04/06 05:07:15;;;;;;;9.20;8.43;;;;;;;2.31;57.16;94587.47;5050905;28;20194;-70
2023/04/06 05:09:44;;;;;;;8.35;7.75;;;;;;;2.31;57.26;94588.28;5002328;28;20239;-70
2023/04/06 05:12:16;;;;;;;8.80;8.10;;;;;;;2.34;57.06;94584.13;5047330;28;20507;-70
2023/04/06 05:14:45;;;;;;;8.05;7.45;;;;;;;2.34;57.14;94575.97;5037555;28;20202;-70
2023/04/06 05:17:12;;;;;;;7.57;7.07;;;;;;;2.36;57.02;94587.31;5037370;28;20225;-70
2023/04/06 05:19:40;;;;;;;7.97;7.47;;;;;;;2.35;57.42;94575.66;5036833;28;20209;-70
2023/04/06 05:22:09;;;;;;;8.20;7.60;;;;;;;2.36;57.25;94581.88;5037032;28;20222;-73
2023/04/06 05:24:39;;;;;;;9.05;8.35;;;;;;;2.40;57.81;94580.16;5037578;28;20535;-70
2023/04/06 05:27:06;;;;;;;9.35;8.50;;;;;;;2.40;57.89;94575.53;5037475;28;20211;-70
2023/04/06 05:29:40;;;;;;;9.50;8.63;;;;;;;2.45;57.54;94577.31;5036967;28;20194;-70
2023/04/06 05:32:10;;;;;;;9.75;9.05;;;;;;;2.46;57.50;94578.91;5038002;28;20186;-69
2023/04/06 05:34:38;;;;;;;9.38;8.68;;;;;;;2.48;57.85;94571.22;5036755;28;20190;-69
2023/04/06 05:37:06;;;;;;;9.10;8.40;;;;;;;2.52;57.76;94576.84;5036727;28;20195;-69
2023/04/06 05:39:35;;;;;;;8.88;8.27;;;;;;;2.53;57.51;94565.63;5038020;28;20202;-70
2023/04/06 05:42:06;;;;;;;9.65;8.95;;;;;;;2.57;57.82;94571.25;5037313;28;20221;-70
2023/04/06 05:44:36;;;;;;;9.60;8.90;;;;;;;2.61;57.55;94574.97;5037470;28;20244;-70
2023/04/06 05:47:06;;;;;;;10.15;9.45;;;;;;;2.67;57.98;94570.19;5036395;28;20210;-69
2023/04/06 05:49:36;;;;;;;9.75;9.05;;;;;;;2.65;57.89;94565.88;5036351;28;20553;-69
2023/04/06 05:52:04;;;;;;;9.90;9.20;;;;;;;2.62;58.01;94566.50;5036697;28;20293;-70
2023/04/06 05:54:31;;;;;;;9.27;8.57;;;;;;;2.58;57.93;94562.00;5037437;28;20179;-70
2023/04/06 05:57:01;;;;;;;10.25;9.45;;;;;;;2.66;58.10;94566.66;5036387;28;20273;-70
2023/04/06 05:59:29;;;;;;;10.82;9.95;;;;;;;2.70;58.68;94562.19;5036720;28;20214;-70
2023/04/06 06:01:57;;;;;;;9.73;9.02;;;;;;;2.75;58.27;94572.13;5035996;28;20242;-70
2023/04/06 06:04:25;;;;;;;9.55;8.90;;;;;;;2.76;58.10;94557.38;5037072;28;20208;-70
2023/04/06 06:06:54;;;;;;;10.43;9.45;;;;;;;2.72;58.48;94565.38;5036530;28;20198;-70
2023/04/06 06:09:21;;;;;;;9.77;8.98;;;;;;;2.68;58.36;94555.44;5036528;28;20198;-70
2023/04/06 06:11:50;;;;;;;12.20;10.55;;;;;;;2.66;58.24;94553.03;5036519;28;20206;-70
2023/04/06 06:14:17;;;;;;;10.70;9.80;;;;;;;2.71;58.31;94568.44;5052852;28;20186;-70
2023/04/06 06:16:44;;;;;;;10.45;9.55;;;;;;;2.72;58.55;94553.69;5037157;28;20183;-70
2023/04/06 06:19:12;;;;;;;9.15;8.45;;;;;;;2.76;58.01;94558.22;5036680;28;20198;-70
2023/04/06 06:21:45;;;;;;;10.68;9.77;;;;;;;2.76;58.12;94560.09;5035634;28;20276;-69
2023/04/06 06:24:15;;;;;;;11.55;10.43;;;;;;;2.74;59.12;94562.38;5035328;28;20293;-69
2023/04/06 06:26:46;;;;;;;9.60;8.85;;;;;;;2.84;58.50;94564.81;5052926;28;20201;-69
2023/04/06 06:29:14;;;;;;;9.80;9.00;;;;;;;2.90;57.72;94555.34;5035786;28;20241;-70
2023/04/06 06:31:42;;;;;;;9.30;8.60;;;;;;;2.93;58.23;94560.16;5036151;28;20305;-70
2023/04/06 06:34:12;;;;;;;9.48;8.70;;;;;;;3.01;57.81;94556.66;5035839;28;20207;-70
2023/04/06 06:36:44;;;;;;;9.85;9.15;;;;;;;3.03;57.64;94557.16;5036232;28;20201;-70
2023/04/06 06:39:11;;;;;;;10.43;9.43;;;;;;;3.09;57.85;94558.59;5035504;28;20206;-70
2023/04/06 06:41:40;;;;;;;9.73;8.93;;;;;;;3.08;57.54;94556.97;5035537;28;20682;-70
2023/04/06 06:44:08;;;;;;;10.20;9.40;;;;;;;3.11;57.70;94567.25;5035236;28;20244;-70
2023/04/06 06:46:36;;;;;;;11.45;10.50;;;;;;;3.20;57.59;94556.38;5036202;28;20214;-70
2023/04/06 06:49:04;;;;;;;13.35;12.13;;;;;;;3.31;57.79;94565.06;5036969;28;20293;-70
2023/04/06 06:51:31;;;;;;;11.57;10.57;;;;;;;3.33;57.71;94568.25;5052168;28;20206;-70
2023/04/06 06:54:05;;;;;;;10.82;10.02;;;;;;;3.32;58.17;94569.38;5051837;28;20209;-70
2023/04/06 06:56:32;;;;;;;11.85;10.75;;;;;;;3.44;58.18;94564.09;5019288;28;20208;-70
2023/04/06 06:59:00;;;;;;;11.93;10.93;;;;;;;3.54;58.16;94561.03;5052368;28;20527;-70
2023/04/06 07:01:29;;;;;;;12.10;11.10;;;;;;;3.59;57.84;94568.25;5051900;28;20257;-70
2023/04/06 07:03:59;;;;;;;9.90;9.20;;;;;;;3.50;57.25;94565.53;5051818;28;20198;-69
2023/04/06 07:06:28;;;;;;;10.63;9.82;;;;;;;3.53;57.52;94570.34;5035364;28;20253;-70
2023/04/06 07:08:56;;;;;;;10.23;9.43;;;;;;;3.55;57.23;94568.09;5034905;28;20225;-70
2023/04/06 07:11:30;;;;;;;10.02;9.23;;;;;;;3.63;57.00;94563.75;5035718;28;20198;-70
2023/04/06 07:13:58;;;;;;;9.57;8.85;;;;;;;3.68;56.50;94566.34;5035358;28;20260;-70
2023/04/06 07:16:26;;;;;;;8.80;8.10;;;;;;;3.70;56.15;94564.09;5034892;28;20508;-70
2023/04/06 07:18:55;;;;;;;9.68;8.93;;;;;;;3.74;55.56;94573.25;5036052;28;20183;-70
2023/04/06 07:21:23;;;;;;;9.52;8.73;;;;;;;3.67;55.43;94567.47;5034940;28;20202;-70
2023/04/06 07:23:50;;;;;;;9.52;8.80;;;;;;;3.62;55.66;94578.53;5035304;28;20256;-70
2023/04/06 07:26:19;;;;;;;10.25;9.45;;;;;;;3.69;56.34;94569.88;5034995;28;20290;-68
2023/04/06 07:28:49;;;;;;;9.48;8.77;;;;;;;3.70;56.26;94569.53;5034979;28;20195;-70
2023/04/06 07:31:16;;;;;;;10.30;9.50;;;;;;;3.70;56.09;94566.81;5034749;28;20208;-69
2023/04/06 07:33:42;;;;;;;10.32;9.52;;;;;;;3.67;55.75;94572.09;5035175;28;20229;-69
2023/04/06 07:36:10;;;;;;;10.40;9.60;;;;;;;3.66;56.26;94565.06;5034177;28;20209;-69
2023/04/06 07:38:37;;;;;;;10.60;9.80;;;;;;;3.68;56.47;94565.56;5034461;28;20194;-69
2023/04/06 07:41:04;;;;;;;10.27;9.55;;;;;;;3.68;55.99;94560.88;5034967;28;20200;-69
2023/04/06 07:43:32;;;;;;;10.15;9.45;;;;;;;3.81;56.32;94562.66;5034334;28;20214;-70
2023/04/06 07:46:00;;;;;;;11.00;10.10;;;;;;;3.92;56.12;94565.03;5034432;28;20198;-69
2023/04/06 07:48:27;;;;;;;10.57;9.77;;;;;;;3.95;56.42;94567.91;5051750;28;20248;-70
2023/04/06 07:51:03;;;;;;;11.02;10.23;;;;;;;4.04;56.42;94557.81;5035654;28;20205;-72
2023/04/06 07:53:31;;;;;;;10.73;9.73;;;;;;;4.05;56.82;94566.78;5052239;28;20206;-72
2023/04/06 07:55:59;;;;;;;11.00;10.10;;;;;;;4.14;56.70;94573.06;5034653;28;20210;-73
2023/04/06 07:58:27;;;;;;;11.05;10.20;;;;;;;4.13;56.04;94556.97;5036547;28;20179;-73
2023/04/06 08:00:55;;;;;;;11.05;10.15;;;;;;;4.19;56.39;94561.16;5052002;28;20248;-72
2023/04/06 08:03:26;;;;;;;11.27;10.48;;;;;;;4.14;56.17;94551.22;5051712;28;20214;-72
2023/04/06 08:05:57;;;;;;;10.88;9.98;;;;;;;4.13;56.83;94560.50;5051632;28;20190;-72
2023/04/06 08:08:25;;;;;;;9.88;9.20;;;;;;;4.19;56.78;94561.94;5035655;28;20201;-72
2023/04/06 08:10:52;;;;;;;10.23;9.43;;;;;;;4.19;56.29;94563.88;5036028;28;20200;-72
2023/04/06 08:13:19;;;;;;;10.82;10.02;;;;;;;4.18;55.91;94556.81;5035506;28;20206;-72
2023/04/06 08:15:47;;;;;;;10.60;9.80;;;;;;;4.34;56.32;94568.81;5034628;28;20205;-73
2023/04/06 08:18:14;;;;;;;10.10;9.40;;;;;;;4.27;55.04;94560.31;5034575;28;20190;-72
2023/04/06 08:20:45;;;;;;;10.90;9.88;;;;;;;4.30;55.49;94570.59;4978403;28;20317;-72
2023/04/06 08:23:13;;;;;;;10.55;9.65;;;;;;;4.33;55.27;94565.28;4979052;28;20224;-73
2023/04/06 08:25:40;;;;;;;11.52;10.52;;;;;;;4.46;55.76;94563.47;4978482;28;20207;-72
2023/04/06 08:28:07;;;;;;;10.98;9.50;;;;;;;4.50;54.78;94561.72;4978430;28;20217;-72
2023/04/06 08:30:34;;;;;;;9.65;8.90;;;;;;;4.51;54.36;94566.03;4994244;28;20207;-72
2023/04/06 08:33:01;;;;;;;9.48;8.75;;;;;;;4.49;54.68;94562.81;4994201;28;20719;-72
2023/04/06 08:35:28;;;;;;;10.05;9.05;;;;;;;4.46;54.06;94565.41;4978381;28;20517;-72
2023/04/06 08:37:57;;;;;;;10.73;9.65;;;;;;;4.47;54.25;94569.75;4999536;28;20209;-72
2023/04/06 08:40:25;;;;;;;10.25;9.35;;;;;;;4.49;53.54;94570.22;5035256;28;20202;-72
2023/04/06 08:42:56;;;;;;;10.05;9.18;;;;;;;4.48;52.98;94571.34;5034524;28;20218;-72
2023/04/06 08:45:23;;;;;;;9.88;8.98;;;;;;;4.44;52.53;94567.66;5034543;28;20198;-72
2023/04/06 08:47:53;;;;;;;9.30;8.60;;;;;;;4.49;53.20;94572.94;5035582;28;20190;-72
2023/04/06 08:50:24;;;;;;;9.75;8.98;;;;;;;4.59;53.03;94561.66;5038410;28;20202;-72
2023/04/06 08:52:51;;;;;;;9.50;8.77;;;;;;;4.75;53.58;94568.19;5038487;28;20198;-72
2023/04/06 08:55:22;;;;;;;10.43;9.38;;;;;;;4.75;53.09;94565.44;5038040;28;20191;-73
2023/04/06 08:57:49;;;;;;;10.15;9.35;;;;;;;4.85;53.27;94558.03;5037978;28;20206;-72
2023/04/06 09:00:17;;;;;;;9.88;9.05;;;;;;;5.06;52.64;94567.06;5038370;28;20289;-72
2023/04/06 09:02:46;;;;;;;8.48;7.78;;;;;;;5.17;51.17;94565.56;5038999;28;20221;-72
2023/04/06 09:05:14;;;;;;;9.95;9.15;;;;;;;5.17;51.29;94560.09;5037866;28;20245;-73
2023/04/06 09:07:41;;;;;;;11.38;10.30;;;;;;;5.24;51.54;94559.56;5038541;28;20537;-72
2023/04/06 09:10:09;;;;;;;9.55;8.85;;;;;;;5.29;51.86;94557.44;5054708;28;20195;-73
2023/04/06 09:12:38;;;;;;;10.38;9.55;;;;;;;5.33;51.44;94549.38;5038224;28;20304;-73
2023/04/06 09:15:07;;;;;;;10.98;10.07;;;;;;;5.23;51.69;94555.25;5038134;28;20198;-72
2023/04/06 09:17:36;;;;;;;10.15;9.35;;;;;;;5.10;51.99;94554.34;5055273;28;20206;-72
2023/04/06 09:20:07;;;;;;;9.90;9.20;;;;;;;5.03;51.70;94556.81;5037068;28;20202;-73
2023/04/06 09:22:37;;;;;;;10.07;9.30;;;;;;;5.08;53.39;94542.94;5037340;28;20221;-73
2023/04/06 09:25:10;;;;;;;10.07;9.27;;;;;;;5.13;52.00;94550.97;5037815;28;20265;-73
2023/04/06 09:27:40;;;;;;;9.73;9.02;;;;;;;5.26;51.34;94547.16;5037667;28;20198;-72
2023/04/06 09:30:13;;;;;;;9.32;8.65;;;;;;;5.29;50.89;94546.50;5037802;28;20245;-72
2023/04/06 09:32:50;;;;;;;8.57;7.97;;;;;;;5.29;50.49;94548.44;5037521;28;20198;-72
2023/04/06 09:35:22;;;;;;;8.77;8.10;;;;;;;5.23;49.95;94556.03;5037277;28;20198;-72
2023/04/06 09:37:50;;;;;;;9.23;8.52;;;;;;;5.16;50.91;94547.56;5037702;28;20198;-73
2023/04/06 09:40:18;;;;;;;10.40;9.60;;;;;;;5.25;51.17;94547.50;5037899;28;20523;-73
2023/04/06 09:42:54;;;;;;;9.40;8.68;;;;;;;5.39;51.09;94542.56;5036983;28;20582;-73
2023/04/06 09:45:24;;;;;;;9.15;8.55;;;;;;;5.64;49.78;94540.78;5037332;28;20209;-72
2023/04/06 09:47:56;;;;;;;8.48;7.82;;;;;;;5.89;49.17;94546.38;5036940;28;20217;-72
2023/04/06 09:50:25;;;;;;;8.82;8.10;;;;;;;6.11;48.66;94537.03;5037698;28;20195;-72
2023/04/06 09:52:55;;;;;;;9.07;8.38;;;;;;;6.24;47.93;94538.63;5033470;28;20293;-72
2023/04/06 09:55:29;;;;;;;8.55;7.88;;;;;;;6.42;47.83;94542.00;5037869;28;91062;-72
2023/04/06 09:58:07;;;;;;;8.73;8.13;;;;;;;6.62;47.46;94545.81;5052949;28;20189;-72
2023/04/06 10:00:44;;;;;;;8.00;7.50;;;;;;;6.89;50.39;94528.69;5034336;28;104528;-72
2023/04/06 10:03:20;;;;;;;9.77;8.98;;;;;;;6.94;46.80;94541.38;5053542;28;20214;-72
2023/04/06 10:05:50;;;;;;;9.43;8.63;;;;;;;7.04;47.97;94537.38;5053853;28;20194;-72
2023/04/06 10:08:17;;;;;;;8.88;8.07;;;;;;;7.26;46.91;94541.59;5036525;28;20256;-72
2023/04/06 10:10:44;;;;;;;9.32;8.65;;;;;;;7.47;47.13;94536.75;5052943;28;20222;-72
2023/04/06 10:13:13;;;;;;;9.80;9.00;;;;;;;7.59;46.32;94538.66;5052839;28;20210;-72
2023/04/06 10:15:41;;;;;;;8.90;8.20;;;;;;;7.72;45.52;94532.81;5036175;28;20194;-72
2023/04/06 10:18:08;;;;;;;9.52;8.80;;;;;;;7.83;45.60;94543.31;5052679;28;20281;-72
2023/04/06 10:20:42;;;;;;;9.07;8.38;;;;;;;8.02;44.29;94537.97;5036230;28;20248;-72
2023/04/06 10:23:19;;;;;;;8.50;7.90;;;;;;;8.06;43.37;94527.91;5053354;28;20229;-72
2023/04/06 10:25:54;;;;;;;8.45;7.70;;;;;;;7.94;44.46;94531.47;5053568;28;20245;-71
2023/04/06 10:28:25;;;;;;;8.38;7.75;;;;;;;7.82;44.33;94531.53;5037240;28;20197;-72
2023/04/06 10:31:00;;;;;;;8.60;7.90;;;;;;;7.76;44.05;94524.69;4997472;28;20257;-72
2023/04/06 10:33:28;;;;;;;8.52;7.82;;;;;;;7.65;44.28;94521.63;4980901;28;20203;-72
2023/04/06 10:35:55;;;;;;;8.63;8.02;;;;;;;8.02;46.16;94520.69;5012747;28;20212;-72
2023/04/06 10:38:35;;;;;;;8.82;8.13;;;;;;;8.46;44.73;94518.81;4980208;28;20200;-72
2023/04/06 10:41:05;;;;;;;8.27;7.68;;;;;;;8.69;43.45;94516.25;4996826;28;20235;-72
2023/04/06 10:43:39;;;;;;;8.30;7.80;;;;;;;8.54;43.18;94517.03;4980323;28;20227;-72
2023/04/06 10:46:09;;;;;;;8.25;7.57;;;;;;;8.26;42.31;94506.84;4980235;28;20200;-71
2023/04/06 10:48:40;;;;;;;8.30;7.60;;;;;;;8.12;43.06;94512.75;5014021;28;20206;-72
2023/04/06 10:51:10;;;;;;;8.68;7.97;;;;;;;8.08;43.00;94514.59;5036541;28;20195;-72
2023/04/06 10:53:38;;;;;;;8.88;8.18;;;;;;;8.03;43.24;94516.81;5036570;28;20213;-72
2023/04/06 10:56:11;;;;;;;8.93;8.23;;;;;;;7.72;43.56;94516.34;5052665;28;20632;-71
2023/04/06 10:58:44;;;;;;;8.20;7.60;;;;;;;7.62;43.86;94516.81;5053044;28;20202;-72
2023/04/06 11:01:12;;;;;;;8.85;8.07;;;;;;;7.61;43.29;94514.44;5002721;28;20242;-71
2023/04/06 11:03:44;;;;;;;8.40;7.80;;;;;;;7.45;43.24;94500.66;5036239;28;20212;-72
2023/04/06 11:06:13;;;;;;;9.20;8.48;;;;;;;7.46;43.67;94516.75;5035350;28;20210;-72
2023/04/06 11:08:41;;;;;;;8.88;8.18;;;;;;;7.40;43.68;94509.91;5051783;28;20294;-73
2023/04/06 11:11:10;;;;;;;7.70;7.20;;;;;;;7.45;43.60;94504.19;5052073;28;20610;-72
2023/04/06 11:13:42;;;;;;;7.70;7.20;;;;;;;7.54;43.69;94497.75;5036481;28;20190;-71
2023/04/06 11:16:15;;;;;;;7.88;7.28;;;;;;;7.54;43.74;94490.31;5034943;28;20204;-72
2023/04/06 11:18:50;;;;;;;8.30;7.60;;;;;;;7.55;43.48;94488.38;5051957;28;20203;-72
2023/04/06 11:21:18;;;;;;;8.48;7.88;;;;;;;7.69;44.95;94486.84;5052145;28;20186;-72
2023/04/06 11:23:48;;;;;;;8.68;7.97;;;;;;;7.70;43.78;94482.97;5035164;28;20272;-72
2023/04/06 11:26:16;;;;;;;8.13;7.53;;;;;;;7.60;43.67;94485.41;4999931;28;20206;-72
2023/04/06 11:28:47;;;;;;;8.07;7.47;;;;;;;7.57;43.99;94483.34;5051505;28;20202;-72
2023/04/06 11:31:18;;;;;;;8.05;7.43;;;;;;;7.42;44.18;94471.94;5051900;28;20197;-72
2023/04/06 11:33:46;;;;;;;8.45;7.75;;;;;;;7.43;44.89;94475.50;5019111;28;20286;-72
2023/04/06 11:36:14;;;;;;;8.52;7.82;;;;;;;7.46;45.60;94477.53;5034764;28;20201;-72
2023/04/06 11:38:42;;;;;;;8.55;7.65;;;;;;;7.41;44.94;94475.84;5051444;28;20213;-72
2023/04/06 11:41:08;;;;;;;8.40;7.80;;;;;;;7.23;44.18;94474.53;5051962;28;20190;-72
2023/04/06 11:43:36;;;;;;;8.20;7.50;;;;;;;7.17;44.66;94465.72;5035197;28;20222;-72
2023/04/06 11:46:08;;;;;;;8.20;7.60;;;;;;;7.14;44.85;94468.34;5051908;28;20286;-72
2023/04/06 11:48:45;;;;;;;7.68;7.03;;;;;;;7.07;44.22;94471.69;5052033;28;20218;-72
2023/04/06 11:51:12;;;;;;;7.82;7.22;;;;;;;6.93;45.13;94455.56;5051792;28;20208;-72
2023/04/06 11:53:45;;;;;;;8.00;7.40;;;;;;;6.80;45.74;94464.97;5052048;28;20199;-72
2023/04/06 11:56:25;;;;;;;8.23;7.63;;;;;;;6.81;45.02;94461.09;5051021;28;20194;-72
2023/04/06 11:58:54;;;;;;;7.70;7.05;;;;;;;6.81;44.47;94463.03;5051208;28;20209;-72
2023/04/06 12:01:22;;;;;;;8.48;7.88;;;;;;;6.83;44.41;94453.31;5051690;28;20328;-72
2023/04/06 12:03:54;;;;;;;8.27;7.57;;;;;;;6.87;45.06;94450.69;5002340;28;20230;-72
2023/04/06 12:06:22;;;;;;;8.18;7.57;;;;;;;6.84;44.63;94465.88;5035421;28;20625;-72
2023/04/06 12:08:51;;;;;;;7.20;6.70;;;;;;;6.83;44.34;94452.53;5035826;28;20193;-72
2023/04/06 12:11:19;;;;;;;8.10;7.45;;;;;;;6.77;45.39;94453.91;5052730;28;20205;-72
2023/04/06 12:13:48;;;;;;;7.80;7.30;;;;;;;6.63;45.62;94452.28;5036517;28;20264;-72
2023/04/06 12:16:15;;;;;;;8.52;7.93;;;;;;;6.53;46.25;94446.47;5036584;28;20187;-71
2023/04/06 12:18:44;;;;;;;8.13;7.43;;;;;;;6.38;46.58;94447.94;5052425;28;20209;-71
2023/04/06 12:21:13;;;;;;;8.23;7.57;;;;;;;6.33;47.33;94443.50;5051483;28;20201;-69
2023/04/06 12:23:43;;;;;;;8.35;7.75;;;;;;;6.43;46.88;94453.22;4997010;28;20659;-69
2023/04/06 12:26:11;;;;;;;8.77;8.07;;;;;;;6.46;46.40;94445.13;4998454;28;20206;-69
2023/04/06 12:28:38;;;;;;;8.13;7.40;;;;;;;6.51;46.84;94444.88;4999271;28;20212;-70
2023/04/06 12:31:06;;;;;;;7.32;6.80;;;;;;;6.48;46.56;94442.81;4982956;28;20291;-70
2023/04/06 12:33:35;;;;;;;8.05;7.45;;;;;;;6.46;46.80;94456.06;4998746;28;20312;-70
2023/04/06 12:36:04;;;;;;;7.22;6.70;;;;;;;6.53;45.66;94447.25;4998645;28;20222;-70
2023/04/06 12:38:31;;;;;;;7.90;7.22;;;;;;;6.57;45.62;94448.19;4982182;28;20234;-70
2023/04/06 12:40:58;;;;;;;7.55;6.95;;;;;;;6.64;45.18;94444.88;4988910;28;20268;-70
2023/04/06 12:43:28;;;;;;;7.30;6.68;;;;;;;6.67;45.05;94441.44;5055611;28;20222;-70
2023/04/06 12:45:56;;;;;;;7.97;7.28;;;;;;;6.74;45.22;94441.66;5038606;28;20269;-70
2023/04/06 12:48:24;;;;;;;7.85;7.25;;;;;;;6.67;43.94;94442.25;5038724;28;20178;-70
2023/04/06 12:50:58;;;;;;;7.45;6.85;;;;;;;6.62;44.45;94439.75;5020867;28;20214;-70
2023/04/06 12:53:28;;;;;;;7.55;6.85;;;;;;;6.59;45.04;94436.88;5054660;28;20301;-71
2023/04/06 12:55:58;;;;;;;7.80;7.20;;;;;;;6.61;45.11;94437.31;5037972;28;20194;-71
2023/04/06 12:58:30;;;;;;;8.52;7.82;;;;;;;6.63;45.61;94432.31;5037931;28;20198;-71
2023/04/06 13:01:02;;;;;;;7.53;6.82;;;;;;;6.63;44.39;94424.88;5054307;28;20292;-70
2023/04/06 13:03:31;;;;;;;7.22;6.72;;;;;;;6.57;43.44;94437.22;5054131;28;20210;-70
2023/04/06 13:06:00;;;;;;;6.53;6.13;;;;;;;6.58;43.68;94427.88;5054291;28;20226;-70
2023/04/06 13:08:31;;;;;;;7.05;6.40;;;;;;;6.61;43.62;94421.72;5038801;28;20185;-70
2023/04/06 13:11:00;;;;;;;7.07;6.55;;;;;;;6.45;43.97;94424.31;5039061;28;20190;-70
2023/04/06 13:13:29;;;;;;;8.00;7.32;;;;;;;6.35;44.38;94423.97;5038436;28;20181;-70
2023/04/06 13:16:00;;;;;;;7.05;6.55;;;;;;;6.23;44.96;94431.03;5054208;28;20248;-70
2023/04/06 13:18:28;;;;;;;7.30;6.80;;;;;;;6.25;45.20;94426.03;5053662;28;20209;-70
2023/04/06 13:20:56;;;;;;;7.25;6.55;;;;;;;6.24;44.78;94418.16;5038165;28;20179;-70
2023/04/06 13:23:27;;;;;;;7.95;7.35;;;;;;;6.34;45.14;94408.69;5037751;28;20190;-70
2023/04/06 13:26:01;;;;;;;7.50;6.90;;;;;;;6.23;44.72;94411.88;5037817;28;20194;-70
2023/04/06 13:28:29;;;;;;;7.60;7.00;;;;;;;6.14;45.86;94410.41;5053572;28;20202;-70
2023/04/06 13:31:00;;;;;;;7.38;6.88;;;;;;;6.14;46.60;94416.66;5038073;28;20201;-70
2023/04/06 13:33:28;;;;;;;7.75;7.15;;;;;;;6.25;45.76;94425.25;5053736;28;20222;-70
2023/04/06 13:35:59;;;;;;;7.28;6.68;;;;;;;6.13;45.27;94417.00;5037612;28;20489;-70
2023/04/06 13:38:28;;;;;;;7.43;6.60;;;;;;;5.99;44.50;94420.03;5053954;28;20206;-70
2023/04/06 13:40:57;;;;;;;6.90;6.38;;;;;;;5.94;45.19;94421.06;5053961;28;20197;-70
2023/04/06 13:43:29;;;;;;;7.55;6.95;;;;;;;6.01;44.91;94423.25;5038342;28;20273;-70
2023/04/06 13:46:01;;;;;;;7.25;6.60;;;;;;;6.09;45.38;94416.88;5053093;28;20195;-70
2023/04/06 13:48:30;;;;;;;7.43;6.85;;;;;;;6.20;45.04;94425.44;5053418;28;20198;-70
2023/04/06 13:50:59;;;;;;;7.15;6.65;;;;;;;6.27;44.55;94421.00;5036885;28;20252;-70
2023/04/06 13:53:29;;;;;;;7.30;6.75;;;;;;;6.30;43.89;94421.47;5037320;28;20190;-70
2023/04/06 13:55:56;;;;;;;8.23;7.63;;;;;;;6.31;44.48;94414.84;5052999;28;20260;-70
2023/04/06 13:58:23;;;;;;;8.38;7.78;;;;;;;6.32;44.93;94405.47;5036263;28;20186;-70
2023/04/06 14:00:56;;;;;;;8.45;7.75;;;;;;;6.39;45.13;94411.19;5035834;28;20333;-71
2023/04/06 14:03:24;;;;;;;7.57;7.00;;;;;;;6.40;44.16;94413.59;5053147;28;20190;-71
2023/04/06 14:05:52;;;;;;;7.25;6.65;;;;;;;6.35;44.05;94413.81;5035925;28;20226;-70
2023/04/06 14:08:20;;;;;;;7.63;7.13;;;;;;;6.31;44.48;94412.91;5052887;28;20200;-71
2023/04/06 14:10:50;;;;;;;8.38;7.78;;;;;;;6.28;44.46;94416.31;5053384;28;20198;-71
2023/04/06 14:13:20;;;;;;;8.30;7.70;;;;;;;6.31;44.48;94417.59;5035949;28;20199;-71
2023/04/06 14:15:47;;;;;;;8.73;7.97;;;;;;;6.35;45.13;94415.75;5052525;28;20217;-71
2023/04/06 14:18:18;;;;;;;6.85;6.40;;;;;;;6.28;43.61;94419.06;5035809;28;20237;-71
2023/04/06 14:20:46;;;;;;;6.90;6.40;;;;;;;6.18;43.75;94420.31;5036281;28;20210;-71
2023/04/06 14:23:15;;;;;;;7.97;7.28;;;;;;;6.19;44.06;94421.13;5052304;28;20213;-71
2023/04/06 14:25:45;;;;;;;7.50;7.00;;;;;;;6.14;43.88;94418.63;5052195;28;20531;-71
2023/04/06 14:28:11;;;;;;;8.15;7.50;;;;;;;6.17;44.55;94406.97;5052079;28;20237;-71
2023/04/06 14:30:39;;;;;;;8.30;7.50;;;;;;;6.17;44.39;94421.47;5052081;28;20198;-70
2023/04/06 14:33:06;;;;;;;10.43;9.45;;;;;;;6.15;45.32;94417.47;5036028;28;20202;-70
2023/04/06 14:35:39;;;;;;;8.70;7.93;;;;;;;6.19;45.01;94412.91;5052010;28;20190;-70
2023/04/06 14:38:10;;;;;;;8.23;7.43;;;;;;;6.21;44.69;94421.59;5035671;28;20204;-70
2023/04/06 14:40:37;;;;;;;8.25;7.65;;;;;;;6.12;44.35;94416.19;5052678;28;20198;-71
2023/04/06 14:43:07;;;;;;;8.63;7.93;;;;;;;6.10;45.06;94417.66;5051922;28;20201;-72
2023/04/06 14:45:34;;;;;;;9.38;8.57;;;;;;;6.15;45.02;94421.00;5051229;28;20295;-71
2023/04/06 14:48:06;;;;;;;9.68;8.88;;;;;;;6.17;44.83;94423.38;5052193;28;20199;-71
2023/04/06 14:50:34;;;;;;;8.15;7.55;;;;;;;6.16;43.65;94422.59;5035187;28;20198;-72
2023/04/06 14:53:08;;;;;;;8.20;7.57;;;;;;;5.97;44.48;94428.63;5051800;28;20205;-71
2023/04/06 14:55:43;;;;;;;8.48;7.88;;;;;;;5.98;44.55;94423.94;4995092;28;20219;-72
2023/04/06 14:58:11;;;;;;;9.48;8.77;;;;;;;5.99;44.89;94425.53;4995008;28;20203;-73
2023/04/06 15:00:41;;;;;;;8.77;8.10;;;;;;;5.94;44.41;94433.97;4995076;28;20199;-72
2023/04/06 15:03:11;;;;;;;7.93;7.32;;;;;;;5.90;44.72;94430.28;4994804;28;20519;-71
2023/04/06 15:05:38;;;;;;;8.50;7.78;;;;;;;5.79;45.50;94429.91;4994716;28;20219;-71
2023/04/06 15:08:09;;;;;;;8.15;7.55;;;;;;;5.78;45.37;94429.13;4994917;28;20204;-70
2023/04/06 15:10:36;;;;;;;9.13;8.38;;;;;;;5.75;45.75;94435.25;4994875;28;20235;-71
2023/04/06 15:13:04;;;;;;;9.90;9.00;;;;;;;5.75;46.14;94438.00;5004573;28;20633;-72
2023/04/06 15:15:31;;;;;;;9.70;8.90;;;;;;;5.80;46.00;94436.97;5051263;28;20199;-72
2023/04/06 15:18:02;;;;;;;9.13;8.43;;;;;;;5.84;46.12;94442.56;5051349;28;20240;-71
2023/04/06 15:20:32;;;;;;;9.43;8.63;;;;;;;5.80;46.11;94439.72;5051277;28;20190;-72
2023/04/06 15:23:02;;;;;;;8.57;7.97;;;;;;;5.73;45.93;94451.19;5035054;28;20208;-71
2023/04/06 15:25:30;;;;;;;9.13;8.43;;;;;;;5.69;47.29;94449.47;5035221;28;20225;-71
2023/04/06 15:27:57;;;;;;;9.50;8.80;;;;;;;5.64;46.62;94452.44;5051744;28;20199;-72
2023/04/06 15:30:25;;;;;;;9.77;9.07;;;;;;;5.62;47.21;94454.69;5035773;28;20186;-71
2023/04/06 15:32:55;;;;;;;10.85;9.95;;;;;;;5.66;47.63;94455.63;5035264;28;20201;-71
2023/04/06 15:35:25;;;;;;;10.70;9.93;;;;;;;5.60;47.77;94454.25;5051047;28;20202;-71
2023/04/06 15:37:52;;;;;;;10.90;10.00;;;;;;;5.57;47.88;94461.19;5051084;28;20198;-71
2023/04/06 15:40:22;;;;;;;10.60;9.90;;;;;;;5.49;48.07;94456.59;5034261;28;20233;-71
2023/04/06 15:42:53;;;;;;;10.98;10.18;;;;;;;5.51;48.42;94466.03;5051440;28;20199;-71
2023/04/06 15:45:20;;;;;;;11.88;10.80;;;;;;;5.55;49.24;94467.00;5034248;28;20222;-71
2023/04/06 15:47:48;;;;;;;12.18;11.10;;;;;;;5.53;49.16;94465.72;5034640;28;20201;-71
2023/04/06 15:50:15;;;;;;;12.73;11.63;;;;;;;5.42;49.25;94470.00;5034250;28;20218;-72